createdAt,value
2023-04-26T00:00:09.554Z,44.84
2023-04-26T00:02:38.341Z,44.96
2023-04-26T00:05:09.554Z,44.43
2023-04-26T00:07:39.727Z,45.53
2023-04-26T00:10:09.711Z,46.29
2023-04-26T00:12:38.276Z,46.59
2023-04-26T00:15:12.430Z,47.20
2023-04-26T00:17:41.362Z,47.82
2023-04-26T00:20:13.122Z,47.34
2023-04-26T00:22:43.256Z,48.20
2023-04-26T00:25:12.694Z,48.25
2023-04-26T00:27:41.233Z,49.00
2023-04-26T00:30:10.699Z,49.45
2023-04-26T00:32:39.562Z,49.70
2023-04-26T00:35:09.784Z,50.36
2023-04-26T00:37:38.466Z,50.29
2023-04-26T00:40:10.672Z,50.62
2023-04-26T00:42:39.905Z,51.26
2023-04-26T00:45:09.450Z,50.31
2023-04-26T00:47:37.946Z,50.46
2023-04-26T00:50:08.956Z,50.42
2023-04-26T00:52:37.568Z,50.16
2023-04-26T00:55:07.474Z,50.64
2023-04-26T00:57:37.374Z,51.15
2023-04-26T01:00:06.932Z,51.58
2023-04-26T01:02:35.617Z,52.43
2023-04-26T01:05:04.856Z,52.96
2023-04-26T01:07:33.668Z,53.05
2023-04-26T01:10:05.215Z,53.27
2023-04-26T01:12:34.068Z,53.67
2023-04-26T01:15:05.518Z,54.02
2023-04-26T01:17:34.116Z,54.58
2023-04-26T01:20:02.541Z,54.85
2023-04-26T01:22:35.633Z,55.53
2023-04-26T01:25:09.431Z,55.71
2023-04-26T01:27:37.887Z,56.01
2023-04-26T01:30:07.279Z,56.00
2023-04-26T01:32:36.325Z,56.63
2023-04-26T01:35:05.876Z,57.15
2023-04-26T01:37:35.731Z,57.61
2023-04-26T01:40:06.537Z,57.44
2023-04-26T01:42:35.020Z,57.40
2023-04-26T01:45:03.505Z,57.37
2023-04-26T01:47:51.881Z,57.42
2023-04-26T01:50:21.968Z,57.69
2023-04-26T01:52:51.800Z,58.13
2023-04-26T01:55:20.559Z,57.88
2023-04-26T01:57:49.363Z,58.32
2023-04-26T02:00:18.033Z,58.56
2023-04-26T02:02:50.869Z,58.29
2023-04-26T02:05:19.409Z,58.78
2023-04-26T02:07:47.747Z,58.13
2023-04-26T02:10:17.681Z,58.39
2023-04-26T02:12:46.406Z,58.92
2023-04-26T02:15:15.436Z,58.89
2023-04-26T02:17:44.168Z,58.82
2023-04-26T02:20:13.566Z,58.81
2023-04-26T02:22:41.962Z,59.83
2023-04-26T02:25:11.788Z,59.37
2023-04-26T02:27:42.139Z,60.02
2023-04-26T02:30:11.285Z,59.78
2023-04-26T02:32:39.801Z,59.61
2023-04-26T02:35:08.877Z,60.40
2023-04-26T02:37:37.522Z,60.55
2023-04-26T02:40:07.222Z,60.78
2023-04-26T02:42:36.697Z,59.84
2023-04-26T02:45:08.180Z,60.48
2023-04-26T02:47:37.158Z,60.88
2023-04-26T02:50:06.228Z,60.46
2023-04-26T02:52:34.768Z,60.79
2023-04-26T02:55:04.129Z,61.28
2023-04-26T02:57:32.951Z,60.67
2023-04-26T03:00:01.417Z,61.55
2023-04-26T03:02:31.669Z,61.25
2023-04-26T03:05:01.191Z,61.63
2023-04-26T03:07:29.765Z,61.67
2023-04-26T03:09:58.294Z,61.97
2023-04-26T03:12:26.661Z,61.61
2023-04-26T03:14:55.179Z,61.38
2023-04-26T03:17:26.087Z,61.83
2023-04-26T03:19:56.443Z,62.14
2023-04-26T03:22:24.929Z,62.25
2023-04-26T03:24:53.728Z,62.84
2023-04-26T03:27:23.546Z,63.12
2023-04-26T03:29:52.143Z,62.25
2023-04-26T03:32:20.644Z,62.87
2023-04-26T03:34:49.986Z,62.83
2023-04-26T03:37:19.826Z,62.73
2023-04-26T03:39:55.423Z,63.17
2023-04-26T03:42:25.108Z,63.31
2023-04-26T03:44:53.794Z,63.06
2023-04-26T03:47:23.875Z,63.07
2023-04-26T03:49:52.906Z,63.66
2023-04-26T03:52:22.665Z,63.34
2023-04-26T03:54:51.178Z,63.48
2023-04-26T03:57:19.552Z,64.08
2023-04-26T03:59:47.867Z,64.13
2023-04-26T04:02:16.622Z,63.85
2023-04-26T04:04:45.420Z,63.80
2023-04-26T04:07:13.978Z,64.33
2023-04-26T04:09:44.810Z,64.27
2023-04-26T04:12:13.246Z,63.96
2023-04-26T04:14:42.318Z,64.73
2023-04-26T04:17:10.645Z,64.54
2023-04-26T04:19:39.304Z,64.32
2023-04-26T04:22:07.792Z,63.83
2023-04-26T04:24:37.202Z,64.02
2023-04-26T04:27:07.093Z,64.96
2023-04-26T04:29:35.613Z,64.18
2023-04-26T04:32:05.272Z,64.85
2023-04-26T04:34:37.281Z,64.65
2023-04-26T04:37:06.239Z,65.31
2023-04-26T04:39:34.753Z,65.09
2023-04-26T04:42:03.267Z,65.15
2023-04-26T04:44:33.651Z,64.67
2023-04-26T04:47:02.132Z,64.69
2023-04-26T04:49:31.739Z,64.78
2023-04-26T04:52:00.208Z,65.30
2023-04-26T04:54:28.595Z,65.55
2023-04-26T04:56:58.367Z,64.88
2023-04-26T04:59:28.075Z,65.33
2023-04-26T05:01:58.544Z,64.64
2023-04-26T05:04:27.195Z,64.15
2023-04-26T05:06:55.864Z,64.10
2023-04-26T05:09:25.371Z,64.44
2023-04-26T05:11:53.869Z,64.38
2023-04-26T05:14:22.324Z,64.41
2023-04-26T05:16:50.697Z,65.37
2023-04-26T05:19:20.633Z,65.05
2023-04-26T05:21:48.989Z,64.73
2023-04-26T05:24:17.366Z,65.58
2023-04-26T05:26:45.778Z,65.29
2023-04-26T05:29:37.388Z,65.30
2023-04-26T05:32:06.471Z,65.77
2023-04-26T05:34:58.907Z,65.90
2023-04-26T05:37:27.288Z,65.30
2023-04-26T05:39:55.948Z,64.81
2023-04-26T05:42:24.455Z,63.18
2023-04-26T05:44:52.827Z,62.61
2023-04-26T05:47:21.362Z,62.52
2023-04-26T05:49:49.655Z,62.41
2023-04-26T05:52:20.721Z,61.91
2023-04-26T05:54:50.087Z,61.12
2023-04-26T05:57:19.310Z,60.54
2023-04-26T05:59:48.270Z,60.12
2023-04-26T06:02:18.296Z,59.90
2023-04-26T06:04:47.103Z,59.62
2023-04-26T06:07:18.254Z,59.58
2023-04-26T06:09:50.178Z,59.90
2023-04-26T06:12:18.624Z,59.71
2023-04-26T06:14:48.058Z,59.25
2023-04-26T06:17:21.477Z,59.07
2023-04-26T06:19:50.307Z,58.25
2023-04-26T06:22:18.807Z,57.28
2023-04-26T06:24:47.227Z,56.61
2023-04-26T06:27:17.927Z,56.03
2023-04-26T06:29:49.589Z,54.82
2023-04-26T06:32:19.421Z,53.25
2023-04-26T06:34:47.924Z,51.58
2023-04-26T06:37:16.347Z,50.21
2023-04-26T06:39:45.167Z,49.17
2023-04-26T06:42:14.292Z,48.78
2023-04-26T06:45:04.469Z,48.16
2023-04-26T06:47:35.493Z,46.77
2023-04-26T06:50:05.897Z,45.92
2023-04-26T06:52:34.588Z,44.95
2023-04-26T06:55:03.821Z,43.90
2023-04-26T06:57:32.256Z,43.00
2023-04-26T07:00:00.669Z,41.52
2023-04-26T07:02:30.685Z,41.02
2023-04-26T07:04:59.655Z,40.68
2023-04-26T07:07:28.512Z,40.02
2023-04-26T07:09:56.874Z,38.71
2023-04-26T07:12:25.334Z,39.47
2023-04-26T07:14:53.748Z,39.05
2023-04-26T07:17:22.411Z,38.69
2023-04-26T07:19:52.527Z,37.15
2023-04-26T07:22:21.570Z,37.00
2023-04-26T07:24:50.041Z,36.35
2023-04-26T07:27:18.490Z,35.80
2023-04-26T07:29:46.990Z,34.52
2023-04-26T07:32:15.535Z,33.42
2023-04-26T07:34:43.948Z,34.14
2023-04-26T07:37:13.795Z,32.46
2023-04-26T07:39:42.141Z,32.17
2023-04-26T07:42:10.485Z,30.93
2023-04-26T07:44:39.940Z,31.34
2023-04-26T07:47:14.033Z,32.88
2023-04-26T07:49:42.774Z,33.54
2023-04-26T07:52:11.219Z,34.37
2023-04-26T07:54:41.295Z,35.22
2023-04-26T07:57:09.831Z,34.65
2023-04-26T07:59:38.320Z,35.33
2023-04-26T08:02:07.217Z,36.05
2023-04-26T08:04:38.035Z,35.87
2023-04-26T08:07:09.820Z,35.94
2023-04-26T08:09:38.485Z,37.05
2023-04-26T08:12:09.286Z,36.49
2023-04-26T08:14:38.869Z,36.41
2023-04-26T08:17:08.081Z,36.65
2023-04-26T08:19:36.681Z,37.07
2023-04-26T08:22:05.939Z,36.98
2023-04-26T08:24:34.344Z,36.54
2023-04-26T08:27:02.749Z,36.46
2023-04-26T08:29:32.613Z,36.23
2023-04-26T08:32:01.493Z,36.67
2023-04-26T08:34:29.963Z,36.97
2023-04-26T08:36:58.603Z,36.97
2023-04-26T08:39:27.030Z,36.38
2023-04-26T08:41:56.588Z,36.77
2023-04-26T08:44:26.148Z,36.32
2023-04-26T08:47:01.952Z,36.89
2023-04-26T08:49:41.730Z,37.30
2023-04-26T08:52:12.056Z,36.17
2023-04-26T08:54:41.611Z,36.71
2023-04-26T08:57:11.266Z,36.45
2023-04-26T08:59:40.610Z,35.70
2023-04-26T09:02:12.481Z,36.09
2023-04-26T09:04:42.620Z,35.74
2023-04-26T09:07:13.520Z,35.55
2023-04-26T09:09:44.010Z,35.32
2023-04-26T09:12:12.472Z,34.85
2023-04-26T09:14:41.633Z,34.86
2023-04-26T09:17:30.848Z,35.59
2023-04-26T09:20:00.217Z,34.86
2023-04-26T09:22:35.881Z,34.46
2023-04-26T09:25:05.601Z,34.46
2023-04-26T09:27:35.911Z,34.67
2023-04-26T09:30:08.303Z,34.49
2023-04-26T09:32:56.735Z,34.07
2023-04-26T09:35:33.540Z,34.40
2023-04-26T09:38:11.708Z,35.02
2023-04-26T09:40:42.875Z,34.38
2023-04-26T09:43:13.183Z,34.33
2023-04-26T09:45:46.804Z,34.99
2023-04-26T09:48:22.844Z,35.04
2023-04-26T09:50:53.678Z,35.09
2023-04-26T09:53:31.144Z,34.38
2023-04-26T09:56:08.604Z,35.11
2023-04-26T09:58:38.852Z,34.58
2023-04-26T10:01:09.530Z,33.42
2023-04-26T10:03:39.663Z,34.02
2023-04-26T10:06:08.952Z,34.02
2023-04-26T10:08:38.368Z,34.63
2023-04-26T10:11:07.809Z,34.87
2023-04-26T10:13:36.675Z,34.69
2023-04-26T10:16:06.865Z,34.02
2023-04-26T10:18:35.842Z,34.13
2023-04-26T10:21:10.751Z,33.55
2023-04-26T10:23:40.150Z,34.57
2023-04-26T10:26:08.657Z,33.94
2023-04-26T10:29:02.150Z,34.96
2023-04-26T10:32:12.047Z,34.21
2023-04-26T10:34:40.770Z,34.59
2023-04-26T10:37:12.390Z,34.48
2023-04-26T10:39:42.244Z,34.32
2023-04-26T10:42:25.553Z,33.92
2023-04-26T10:44:56.101Z,33.90
2023-04-26T10:47:31.923Z,33.80
2023-04-26T10:50:06.306Z,34.04
2023-04-26T10:52:37.170Z,34.03
2023-04-26T10:55:07.864Z,34.43
2023-04-26T10:57:56.466Z,33.69
2023-04-26T11:00:33.114Z,34.22
2023-04-26T11:03:12.921Z,34.94
2023-04-26T11:05:52.076Z,34.55
2023-04-26T11:08:25.683Z,33.12
2023-04-26T11:11:06.482Z,33.89
2023-04-26T11:13:37.409Z,33.65
2023-04-26T11:16:07.280Z,34.38
2023-04-26T11:18:36.843Z,33.62
2023-04-26T11:21:06.384Z,33.81
2023-04-26T11:23:36.835Z,34.37
2023-04-26T11:26:06.733Z,34.23
2023-04-26T11:28:36.754Z,33.90
2023-04-26T11:31:05.520Z,33.16
2023-04-26T11:33:35.280Z,32.28
2023-04-26T11:36:04.249Z,32.42
2023-04-26T11:38:32.669Z,32.30
2023-04-26T11:41:03.843Z,32.96
2023-04-26T11:43:36.836Z,33.61
2023-04-26T11:46:05.991Z,33.91
2023-04-26T11:48:37.092Z,33.04
2023-04-26T11:51:07.687Z,33.40
2023-04-26T11:53:38.457Z,33.87
2023-04-26T11:56:16.405Z,33.58
2023-04-26T11:58:49.029Z,33.37
2023-04-26T12:01:24.478Z,33.47
2023-04-26T12:03:54.233Z,33.50
2023-04-26T12:06:30.642Z,33.94
2023-04-26T12:08:59.121Z,33.69
2023-04-26T12:11:29.062Z,33.15
2023-04-26T12:14:01.613Z,33.69
2023-04-26T12:16:30.244Z,33.67
2023-04-26T12:18:58.923Z,34.55
2023-04-26T12:21:30.315Z,34.27
2023-04-26T12:23:59.270Z,33.52
2023-04-26T12:29:21.964Z,33.56
2023-04-26T12:31:50.525Z,33.93
2023-04-26T12:34:20.642Z,33.42
2023-04-26T12:36:49.839Z,33.05
2023-04-26T12:39:19.730Z,33.24
2023-04-26T12:41:49.525Z,33.25
2023-04-26T12:44:21.246Z,32.80
2023-04-26T12:46:52.559Z,33.53
2023-04-26T12:49:21.333Z,33.98
2023-04-26T12:51:49.793Z,32.87
2023-04-26T12:54:18.342Z,32.29
2023-04-26T12:56:46.805Z,33.01
2023-04-26T12:59:15.218Z,33.69
2023-04-26T13:01:43.774Z,33.05
2023-04-26T13:04:13.772Z,33.53
2023-04-26T13:06:42.574Z,33.02
2023-04-26T13:09:13.325Z,33.56
2023-04-26T13:11:41.934Z,33.29
2023-04-26T13:14:10.621Z,33.40
2023-04-26T13:16:42.466Z,33.63
2023-04-26T13:19:11.020Z,34.71
2023-04-26T13:21:42.164Z,34.61
2023-04-26T13:24:10.799Z,34.88
2023-04-26T13:26:39.207Z,35.40
2023-04-26T13:29:07.758Z,36.12
2023-04-26T13:31:36.978Z,36.73
2023-04-26T13:34:07.205Z,36.61
2023-04-26T13:36:35.804Z,36.75
2023-04-26T13:39:07.397Z,37.15
2023-04-26T13:41:37.413Z,37.39
2023-04-26T13:44:06.148Z,37.50
2023-04-26T13:46:34.722Z,37.40
2023-04-26T13:49:03.091Z,37.45
2023-04-26T13:51:33.302Z,38.10
2023-04-26T13:54:01.893Z,38.11
2023-04-26T13:56:33.150Z,37.86
2023-04-26T13:59:03.676Z,37.96
2023-04-26T14:01:32.937Z,37.80
2023-04-26T14:04:01.522Z,37.20
2023-04-26T14:06:32.764Z,37.80
2023-04-26T14:09:01.524Z,38.09
2023-04-26T14:11:29.960Z,38.32
2023-04-26T14:14:00.254Z,38.72
2023-04-26T14:16:28.831Z,39.21
2023-04-26T14:18:57.612Z,39.36
2023-04-26T14:21:26.930Z,40.04
2023-04-26T14:23:56.538Z,40.62
2023-04-26T14:26:27.411Z,40.86
2023-04-26T14:28:56.221Z,40.91
2023-04-26T14:31:28.234Z,40.52
2023-04-26T14:33:56.792Z,41.42
2023-04-26T14:36:25.313Z,41.85
2023-04-26T14:38:53.737Z,40.86
2023-04-26T14:41:22.145Z,41.00
2023-04-26T14:43:50.788Z,41.82
2023-04-26T14:46:19.174Z,42.02
2023-04-26T14:48:49.078Z,41.94
2023-04-26T14:51:17.493Z,41.87
2023-04-26T14:53:45.966Z,41.73
2023-04-26T14:56:14.479Z,41.59
2023-04-26T14:58:42.854Z,41.50
2023-04-26T15:01:11.261Z,41.91
2023-04-26T15:03:39.959Z,42.12
2023-04-26T15:06:11.180Z,42.88
2023-04-26T15:08:39.615Z,42.65
2023-04-26T15:11:08.011Z,42.66
2023-04-26T15:13:36.550Z,42.63
2023-04-26T15:16:07.777Z,43.58
2023-04-26T15:18:36.646Z,43.43
2023-04-26T15:21:05.209Z,43.26
2023-04-26T15:23:35.026Z,43.75
2023-04-26T15:26:04.091Z,44.17
2023-04-26T15:28:34.165Z,44.16
2023-04-26T15:31:07.030Z,44.59
2023-04-26T15:33:35.857Z,45.38
2023-04-26T15:36:04.529Z,45.29
2023-04-26T15:38:36.764Z,46.05
2023-04-26T15:41:05.572Z,46.26
2023-04-26T15:43:34.030Z,46.25
2023-04-26T15:46:02.546Z,46.62
2023-04-26T15:48:31.080Z,47.16
2023-04-26T15:50:59.554Z,47.21
2023-04-26T15:53:27.948Z,47.21
2023-04-26T15:55:57.812Z,47.31
2023-04-26T15:58:26.232Z,47.37
2023-04-26T16:00:54.714Z,47.40
2023-04-26T16:03:23.654Z,47.80
2023-04-26T16:05:53.425Z,47.60
2023-04-26T16:08:39.388Z,48.36
2023-04-26T16:11:10.112Z,48.56
2023-04-26T16:13:38.610Z,48.84
2023-04-26T16:16:10.897Z,48.44
2023-04-26T16:18:40.460Z,48.63
2023-04-26T16:21:10.015Z,48.92
2023-04-26T16:23:38.648Z,49.09
2023-04-26T16:26:07.377Z,49.11
2023-04-26T16:28:37.463Z,49.58
2023-04-26T16:31:06.720Z,49.41
2023-04-26T16:33:35.533Z,49.76
2023-04-26T16:36:03.907Z,49.57
2023-04-26T16:38:33.430Z,49.34
2023-04-26T16:41:02.733Z,49.32
2023-04-26T16:43:32.944Z,49.44
2023-04-26T16:46:04.668Z,49.20
2023-04-26T16:48:34.231Z,49.40
2023-04-26T16:51:06.377Z,49.46
2023-04-26T16:53:36.097Z,49.67
2023-04-26T16:56:05.215Z,49.85
2023-04-26T16:58:33.641Z,50.01
2023-04-26T17:01:03.453Z,51.14
2023-04-26T17:03:32.210Z,50.97
2023-04-26T17:06:01.574Z,50.98
2023-04-26T17:08:30.228Z,51.15
2023-04-26T17:10:59.566Z,51.39
2023-04-26T17:13:29.572Z,51.70
2023-04-26T17:15:58.429Z,50.62
2023-04-26T17:18:28.438Z,50.66
2023-04-26T17:20:56.976Z,50.57
2023-04-26T17:23:25.724Z,50.58
2023-04-26T17:25:55.247Z,50.27
2023-04-26T17:28:23.961Z,49.99
2023-04-26T17:30:52.301Z,50.24
2023-04-26T17:33:20.926Z,50.34
2023-04-26T17:35:50.885Z,51.17
2023-04-26T17:40:52.555Z,49.56
2023-04-26T17:43:21.398Z,49.37
2023-04-26T17:45:49.970Z,48.91
2023-04-26T17:48:18.407Z,48.52
2023-04-26T17:50:46.691Z,48.49
2023-04-26T17:53:16.582Z,48.12
2023-04-26T17:55:45.177Z,48.66
2023-04-26T17:58:13.630Z,48.67
2023-04-26T18:00:42.224Z,48.54
2023-04-26T18:03:12.138Z,48.71
2023-04-26T18:05:41.029Z,48.47
2023-04-26T18:08:09.387Z,49.13
2023-04-26T18:10:41.225Z,49.09
2023-04-26T18:13:11.181Z,50.03
2023-04-26T18:15:39.768Z,50.40
2023-04-26T18:18:08.224Z,50.04
2023-04-26T18:20:37.600Z,49.64
2023-04-26T18:23:06.515Z,49.93
2023-04-26T18:25:34.862Z,49.65
2023-04-26T18:28:04.705Z,49.39
2023-04-26T18:30:33.146Z,50.10
2023-04-26T18:33:01.612Z,49.35
2023-04-26T18:35:30.185Z,50.74
2023-04-26T18:37:58.526Z,51.35
2023-04-26T18:40:26.998Z,50.98
2023-04-26T18:42:55.483Z,51.29
2023-04-26T18:45:25.514Z,52.52
2023-04-26T18:47:55.348Z,53.09
2023-04-26T18:50:23.907Z,53.40
2023-04-26T18:52:52.394Z,53.82
2023-04-26T18:55:20.975Z,54.05
2023-04-26T18:57:49.480Z,54.23
2023-04-26T19:00:18.465Z,54.31
2023-04-26T19:02:48.650Z,54.34
2023-04-26T19:05:18.581Z,54.49
2023-04-26T19:07:47.162Z,54.69
2023-04-26T19:10:16.617Z,54.63
2023-04-26T19:12:45.067Z,54.52
2023-04-26T19:15:13.523Z,54.56
2023-04-26T19:17:42.434Z,55.01
2023-04-26T19:20:15.578Z,54.88
2023-04-26T19:22:47.015Z,55.07
2023-04-26T19:25:15.592Z,55.36
2023-04-26T19:27:44.401Z,55.32
2023-04-26T19:30:13.970Z,55.38
2023-04-26T19:32:42.509Z,55.29
2023-04-26T19:35:12.538Z,55.92
2023-04-26T19:37:42.563Z,56.48
2023-04-26T19:40:12.414Z,56.43
2023-04-26T19:42:41.049Z,56.69
2023-04-26T19:45:09.938Z,56.54
2023-04-26T19:47:38.520Z,56.76
2023-04-26T19:50:07.975Z,56.93
2023-04-26T19:52:37.932Z,56.68
2023-04-26T19:55:07.022Z,56.95
2023-04-26T19:57:35.377Z,57.14
2023-04-26T20:00:05.203Z,57.21
2023-04-26T20:02:35.675Z,56.86
2023-04-26T20:05:05.206Z,56.65
2023-04-26T20:07:33.645Z,56.74
2023-04-26T20:10:03.493Z,57.25
2023-04-26T20:12:31.926Z,57.05
2023-04-26T20:15:01.304Z,56.74
2023-04-26T20:17:29.806Z,57.36
2023-04-26T20:19:58.153Z,57.53
2023-04-26T20:22:26.626Z,55.83
2023-04-26T20:24:55.042Z,54.72
2023-04-26T20:27:24.831Z,51.49
2023-04-26T20:29:53.428Z,49.94
2023-04-26T20:32:21.978Z,50.29
2023-04-26T20:34:50.366Z,50.48
2023-04-26T20:37:18.867Z,51.16
2023-04-26T20:39:47.429Z,51.28
2023-04-26T20:42:15.883Z,51.76
2023-04-26T20:44:45.837Z,52.63
2023-04-26T20:47:14.224Z,53.10
2023-04-26T20:49:42.790Z,53.52
2023-04-26T20:52:11.656Z,53.56
2023-04-26T20:54:40.049Z,53.44
2023-04-26T20:57:08.406Z,53.63
2023-04-26T20:59:36.783Z,53.22
2023-04-26T21:02:07.879Z,52.32
2023-04-26T21:04:38.673Z,52.51
2023-04-26T21:07:07.685Z,52.76
2023-04-26T21:09:36.055Z,52.74
2023-04-26T21:12:04.527Z,53.02
2023-04-26T21:14:32.924Z,52.72
2023-04-26T21:17:01.909Z,52.60
2023-04-26T21:19:31.663Z,52.19
2023-04-26T21:22:00.042Z,51.91
2023-04-26T21:24:28.292Z,52.12
2023-04-26T21:26:56.758Z,52.32
2023-04-26T21:29:25.525Z,52.85
2023-04-26T21:31:54.042Z,53.23
2023-04-26T21:34:22.540Z,53.02
2023-04-26T21:36:53.397Z,53.00
2023-04-26T21:39:22.153Z,52.92
2023-04-26T21:41:50.564Z,53.07
2023-04-26T21:44:19.084Z,53.62
2023-04-26T21:46:47.529Z,54.46
2023-04-26T21:49:16.447Z,54.71
2023-04-26T21:51:44.794Z,54.88
2023-04-26T21:54:14.872Z,54.65
2023-04-26T21:56:43.232Z,54.95
2023-04-26T21:59:12.487Z,55.74
2023-04-26T22:01:42.554Z,55.77
2023-04-26T22:04:11.222Z,55.88
2023-04-26T22:06:39.606Z,55.46
2023-04-26T22:09:09.891Z,55.14
2023-04-26T22:11:40.033Z,54.41
2023-04-26T22:14:08.491Z,53.66
2023-04-26T22:16:37.023Z,53.18
2023-04-26T22:19:05.503Z,53.12
2023-04-26T22:21:33.945Z,52.42
2023-04-26T22:24:02.386Z,52.19
2023-04-26T22:26:30.800Z,51.42
2023-04-26T22:29:00.676Z,50.51
2023-04-26T22:31:29.040Z,50.65
2023-04-26T22:33:57.725Z,51.02
2023-04-26T22:36:26.195Z,51.17
2023-04-26T22:38:55.902Z,51.05
2023-04-26T22:41:24.376Z,51.20
2023-04-26T22:43:53.356Z,50.62
2023-04-26T22:46:23.443Z,50.07
2023-04-26T22:48:51.874Z,49.82
2023-04-26T22:51:20.258Z,49.95
2023-04-26T22:53:48.708Z,49.79
2023-04-26T22:56:17.101Z,49.74
2023-04-26T22:58:45.530Z,50.31
2023-04-26T23:01:14.076Z,50.41
2023-04-26T23:03:44.038Z,50.32
2023-04-26T23:06:12.497Z,49.37
2023-04-26T23:08:40.909Z,48.80
2023-04-26T23:11:09.894Z,48.58
2023-04-26T23:13:38.249Z,48.33
2023-04-26T23:16:07.341Z,48.71
2023-04-26T23:18:35.717Z,49.24
2023-04-26T23:21:06.100Z,49.40
2023-04-26T23:23:34.533Z,49.27
2023-04-26T23:26:06.054Z,49.62
2023-04-26T23:28:36.213Z,50.07
2023-04-26T23:31:04.646Z,50.23
2023-04-26T23:33:33.178Z,50.99
2023-04-26T23:36:02.554Z,51.30
2023-04-26T23:38:32.376Z,51.96
2023-04-26T23:41:00.814Z,52.08
2023-04-26T23:43:29.163Z,52.00
2023-04-26T23:45:57.573Z,51.64
2023-04-26T23:48:26.175Z,51.85
2023-04-26T23:50:54.625Z,52.02
2023-04-26T23:53:23.007Z,52.23
2023-04-26T23:55:52.784Z,51.92
2023-04-26T23:58:22.018Z,51.96
